sensor_id;sensor_type;location;lat;lon;timestamp;pressure;altitude;pressure_sealevel;temperature;humidity
49102;BME280;34913;47.520;19.186;2023-02-17T00:02:07;100805.38;;;0.31;92.28
49102;BME280;34913;47.520;19.186;2023-02-17T00:04:33;100800.41;;;0.21;93.73
49102;BME280;34913;47.520;19.186;2023-02-17T00:06:59;100797.66;;;0.27;95.38
49102;BME280;34913;47.520;19.186;2023-02-17T00:09:24;100800.91;;;0.36;97.75
49102;BME280;34913;47.520;19.186;2023-02-17T00:11:51;100798.19;;;0.40;98.88
49102;BME280;34913;47.520;19.186;2023-02-17T00:14:17;100798.06;;;0.43;100.00
49102;BME280;34913;47.520;19.186;2023-02-17T00:16:43;100797.66;;;0.59;100.00
49102;BME280;34913;47.520;19.186;2023-02-17T00:19:10;100798.09;;;0.73;100.00
49102;BME280;34913;47.520;19.186;2023-02-17T00:21:52;100791.69;;;0.83;100.00
49102;BME280;34913;47.520;19.186;2023-02-17T00:24:18;100788.66;;;0.97;100.00
49102;BME280;34913;47.520;19.186;2023-02-17T00:26:43;100791.75;;;1.09;100.00
49102;BME280;34913;47.520;19.186;2023-02-17T00:29:09;100788.81;;;1.20;100.00
49102;BME280;34913;47.520;19.186;2023-02-17T00:31:34;100788.47;;;1.31;99.51
49102;BME280;34913;47.520;19.186;2023-02-17T00:34:00;100785.56;;;1.40;99.37
49102;BME280;34913;47.520;19.186;2023-02-17T00:36:25;100787.78;;;1.52;98.89
49102;BME280;34913;47.520;19.186;2023-02-17T00:38:53;100782.06;;;1.67;98.48
49102;BME280;34913;47.520;19.186;2023-02-17T00:41:20;100784.03;;;1.86;97.91
49102;BME280;34913;47.520;19.186;2023-02-17T00:43:46;100782.81;;;1.96;97.02
49102;BME280;34913;47.520;19.186;2023-02-17T00:46:13;100778.28;;;2.01;96.80
49102;BME280;34913;47.520;19.186;2023-02-17T00:48:39;100774.41;;;2.11;96.11
49102;BME280;34913;47.520;19.186;2023-02-17T00:51:04;100780.47;;;2.13;95.79
49102;BME280;34913;47.520;19.186;2023-02-17T00:53:30;100786.50;;;2.15;95.40
49102;BME280;34913;47.520;19.186;2023-02-17T00:55:55;100795.09;;;2.19;95.53
49102;BME280;34913;47.520;19.186;2023-02-17T00:58:21;100788.16;;;2.18;95.16
49102;BME280;34913;47.520;19.186;2023-02-17T01:00:46;100787.28;;;2.17;95.09
49102;BME280;34913;47.520;19.186;2023-02-17T01:03:12;100788.22;;;2.16;94.76
49102;BME280;34913;47.520;19.186;2023-02-17T01:05:45;100784.94;;;2.10;94.61
49102;BME280;34913;47.520;19.186;2023-02-17T01:08:12;100786.84;;;2.05;94.91
49102;BME280;34913;47.520;19.186;2023-02-17T01:10:38;100786.84;;;2.05;95.08
49102;BME280;34913;47.520;19.186;2023-02-17T01:13:05;100774.81;;;2.01;95.06
49102;BME280;34913;47.520;19.186;2023-02-17T01:15:30;100782.66;;;2.01;94.97
49102;BME280;34913;47.520;19.186;2023-02-17T01:17:57;100780.78;;;2.04;95.29
49102;BME280;34913;47.520;19.186;2023-02-17T01:20:22;100792.81;;;2.10;95.14
49102;BME280;34913;47.520;19.186;2023-02-17T01:22:48;100796.13;;;2.15;95.00
49102;BME280;34913;47.520;19.186;2023-02-17T01:25:13;100789.78;;;2.20;94.79
49102;BME280;34913;47.520;19.186;2023-02-17T01:27:39;100776.66;;;2.22;93.80
49102;BME280;34913;47.520;19.186;2023-02-17T01:30:05;100786.97;;;2.27;93.78
49102;BME280;34913;47.520;19.186;2023-02-17T01:32:30;100773.88;;;2.27;93.63
49102;BME280;34913;47.520;19.186;2023-02-17T01:34:56;100769.47;;;2.27;93.26
49102;BME280;34913;47.520;19.186;2023-02-17T01:37:21;100768.47;;;2.31;93.27
49102;BME280;34913;47.520;19.186;2023-02-17T01:39:47;100765.91;;;2.30;92.86
49102;BME280;34913;47.520;19.186;2023-02-17T01:42:17;100759.81;;;2.29;92.65
49102;BME280;34913;47.520;19.186;2023-02-17T01:48:11;100760.56;;;2.33;91.97
49102;BME280;34913;47.520;19.186;2023-02-17T01:56:06;100751.78;;;2.34;91.19
49102;BME280;34913;47.520;19.186;2023-02-17T01:58:33;100748.31;;;2.33;90.91
49102;BME280;34913;47.520;19.186;2023-02-17T02:01:00;100743.13;;;2.32;91.20
49102;BME280;34913;47.520;19.186;2023-02-17T02:03:29;100749.94;;;2.36;90.51
49102;BME280;34913;47.520;19.186;2023-02-17T02:05:58;100743.00;;;2.35;90.17
49102;BME280;34913;47.520;19.186;2023-02-17T02:08:27;100736.81;;;2.37;89.88
49102;BME280;34913;47.520;19.186;2023-02-17T02:10:55;100739.44;;;2.37;89.37
49102;BME280;34913;47.520;19.186;2023-02-17T02:13:20;100740.16;;;2.41;89.45
49102;BME280;34913;47.520;19.186;2023-02-17T02:15:51;100736.75;;;2.39;88.84
49102;BME280;34913;47.520;19.186;2023-02-17T02:18:43;100735.22;;;2.33;88.92
49102;BME280;34913;47.520;19.186;2023-02-17T02:28:46;100732.16;;;2.22;88.95
49102;BME280;34913;47.520;19.186;2023-02-17T02:34:03;100723.38;;;2.23;88.88
49102;BME280;34913;47.520;19.186;2023-02-17T02:36:35;100718.72;;;2.31;88.60
49102;BME280;34913;47.520;19.186;2023-02-17T02:39:23;100722.41;;;2.49;87.74
49102;BME280;34913;47.520;19.186;2023-02-17T02:41:57;100706.44;;;2.55;87.35
49102;BME280;34913;47.520;19.186;2023-02-17T02:44:25;100711.50;;;2.60;86.76
49102;BME280;34913;47.520;19.186;2023-02-17T02:46:59;100710.19;;;2.71;86.25
49102;BME280;34913;47.520;19.186;2023-02-17T02:49:25;100705.88;;;2.70;85.87
49102;BME280;34913;47.520;19.186;2023-02-17T02:54:35;100721.09;;;2.83;85.01
49102;BME280;34913;47.520;19.186;2023-02-17T03:02:37;100724.00;;;2.75;85.12
49102;BME280;34913;47.520;19.186;2023-02-17T03:05:12;100723.94;;;2.76;85.19
49102;BME280;34913;47.520;19.186;2023-02-17T03:07:45;100726.47;;;2.79;84.81
49102;BME280;34913;47.520;19.186;2023-02-17T03:10:13;100727.38;;;2.78;85.09
49102;BME280;34913;47.520;19.186;2023-02-17T03:12:39;100722.06;;;2.80;84.43
49102;BME280;34913;47.520;19.186;2023-02-17T03:15:11;100739.50;;;2.81;84.40
49102;BME280;34913;47.520;19.186;2023-02-17T03:17:38;100740.50;;;2.78;84.39
49102;BME280;34913;47.520;19.186;2023-02-17T03:20:04;100737.94;;;2.77;84.24
49102;BME280;34913;47.520;19.186;2023-02-17T03:22:36;100729.94;;;2.80;84.26
49102;BME280;34913;47.520;19.186;2023-02-17T03:25:05;100734.41;;;2.78;84.06
49102;BME280;34913;47.520;19.186;2023-02-17T03:27:31;100741.22;;;2.82;84.10
49102;BME280;34913;47.520;19.186;2023-02-17T03:29:56;100738.03;;;2.74;83.50
49102;BME280;34913;47.520;19.186;2023-02-17T03:32:22;100735.72;;;2.66;83.95
49102;BME280;34913;47.520;19.186;2023-02-17T03:34:47;100741.00;;;2.65;84.37
49102;BME280;34913;47.520;19.186;2023-02-17T03:37:13;100739.31;;;2.64;84.40
49102;BME280;34913;47.520;19.186;2023-02-17T03:39:38;100733.88;;;2.68;83.96
49102;BME280;34913;47.520;19.186;2023-02-17T03:42:03;100731.38;;;2.65;83.49
49102;BME280;34913;47.520;19.186;2023-02-17T03:44:29;100736.69;;;2.64;83.66
49102;BME280;34913;47.520;19.186;2023-02-17T03:46:54;100741.19;;;2.60;83.78
49102;BME280;34913;47.520;19.186;2023-02-17T03:49:20;100752.00;;;2.51;83.88
49102;BME280;34913;47.520;19.186;2023-02-17T03:51:46;100750.25;;;2.51;84.08
49102;BME280;34913;47.520;19.186;2023-02-17T03:54:11;100750.06;;;2.56;83.88
49102;BME280;34913;47.520;19.186;2023-02-17T03:56:36;100744.91;;;2.55;83.92
49102;BME280;34913;47.520;19.186;2023-02-17T03:59:02;100747.75;;;2.48;83.72
49102;BME280;34913;47.520;19.186;2023-02-17T04:01:28;100741.94;;;2.40;83.84
49102;BME280;34913;47.520;19.186;2023-02-17T04:03:54;100739.66;;;2.31;84.42
49102;BME280;34913;47.520;19.186;2023-02-17T04:06:20;100738.75;;;2.32;84.92
49102;BME280;34913;47.520;19.186;2023-02-17T04:08:45;100738.69;;;2.34;84.27
49102;BME280;34913;47.520;19.186;2023-02-17T04:11:11;100736.81;;;2.37;84.22
49102;BME280;34913;47.520;19.186;2023-02-17T04:13:36;100733.31;;;2.37;84.21
49102;BME280;34913;47.520;19.186;2023-02-17T04:16:02;100732.44;;;2.38;83.88
49102;BME280;34913;47.520;19.186;2023-02-17T04:18:29;100741.94;;;2.40;83.90
49102;BME280;34913;47.520;19.186;2023-02-17T04:20:54;100747.97;;;2.42;83.85
49102;BME280;34913;47.520;19.186;2023-02-17T04:23:20;100735.66;;;2.44;83.59
49102;BME280;34913;47.520;19.186;2023-02-17T04:25:46;100729.53;;;2.45;83.88
49102;BME280;34913;47.520;19.186;2023-02-17T04:28:13;100725.19;;;2.44;83.72
49102;BME280;34913;47.520;19.186;2023-02-17T04:30:39;100735.66;;;2.44;83.68
49102;BME280;34913;47.520;19.186;2023-02-17T04:33:06;100735.66;;;2.44;83.25
49102;BME280;34913;47.520;19.186;2023-02-17T04:35:32;100729.91;;;2.35;83.20
49102;BME280;34913;47.520;19.186;2023-02-17T04:37:57;100732.81;;;2.27;83.68
49102;BME280;34913;47.520;19.186;2023-02-17T04:40:23;100723.72;;;2.14;83.70
49102;BME280;34913;47.520;19.186;2023-02-17T04:42:48;100723.22;;;2.03;84.72
49102;BME280;34913;47.520;19.186;2023-02-17T04:45:14;100716.44;;;1.97;85.02
49102;BME280;34913;47.520;19.186;2023-02-17T04:47:39;100707.63;;;2.00;85.46
49102;BME280;34913;47.520;19.186;2023-02-17T04:50:06;100704.09;;;2.01;85.41
49102;BME280;34913;47.520;19.186;2023-02-17T04:52:32;100714.66;;;1.99;85.33
49102;BME280;34913;47.520;19.186;2023-02-17T04:54:58;100722.97;;;1.85;85.75
49102;BME280;34913;47.520;19.186;2023-02-17T04:57:23;100707.69;;;1.73;86.66
49102;BME280;34913;47.520;19.186;2023-02-17T04:59:49;100717.38;;;1.71;86.98
49102;BME280;34913;47.520;19.186;2023-02-17T05:02:14;100710.31;;;1.73;87.23
49102;BME280;34913;47.520;19.186;2023-02-17T05:04:40;100723.19;;;1.79;87.13
49102;BME280;34913;47.520;19.186;2023-02-17T05:07:05;100724.38;;;1.71;86.78
49102;BME280;34913;47.520;19.186;2023-02-17T05:09:31;100718.69;;;1.58;87.40
49102;BME280;34913;47.520;19.186;2023-02-17T05:11:56;100723.03;;;1.59;87.89
49102;BME280;34913;47.520;19.186;2023-02-17T05:14:22;100722.78;;;1.65;88.27
49102;BME280;34913;47.520;19.186;2023-02-17T05:16:47;100721.69;;;1.72;88.21
49102;BME280;34913;47.520;19.186;2023-02-17T05:19:13;100726.06;;;1.72;88.29
49102;BME280;34913;47.520;19.186;2023-02-17T05:21:38;100724.16;;;1.77;88.50
49102;BME280;34913;47.520;19.186;2023-02-17T05:24:03;100714.53;;;1.77;88.79
49102;BME280;34913;47.520;19.186;2023-02-17T05:26:29;100718.66;;;1.84;88.84
49102;BME280;34913;47.520;19.186;2023-02-17T05:28:54;100723.69;;;1.90;88.96
49102;BME280;34913;47.520;19.186;2023-02-17T05:31:20;100736.44;;;2.00;89.01
49102;BME280;34913;47.520;19.186;2023-02-17T05:33:45;100737.03;;;2.08;88.47
49102;BME280;34913;47.520;19.186;2023-02-17T05:36:11;100744.75;;;2.11;88.06
49102;BME280;34913;47.520;19.186;2023-02-17T05:38:37;100743.81;;;2.13;87.82
49102;BME280;34913;47.520;19.186;2023-02-17T05:41:03;100738.38;;;2.18;87.65
49102;BME280;34913;47.520;19.186;2023-02-17T05:43:29;100736.63;;;2.18;86.64
49102;BME280;34913;47.520;19.186;2023-02-17T05:45:55;100732.00;;;2.02;86.53
49102;BME280;34913;47.520;19.186;2023-02-17T05:48:20;100743.53;;;1.96;87.16
49102;BME280;34913;47.520;19.186;2023-02-17T05:50:46;100748.94;;;1.91;87.79
49102;BME280;34913;47.520;19.186;2023-02-17T05:53:12;100738.34;;;1.94;88.08
49102;BME280;34913;47.520;19.186;2023-02-17T05:55:37;100740.91;;;1.96;88.29
49102;BME280;34913;47.520;19.186;2023-02-17T05:58:03;100742.53;;;2.00;88.54
49102;BME280;34913;47.520;19.186;2023-02-17T06:00:29;100751.75;;;2.10;88.52
49102;BME280;34913;47.520;19.186;2023-02-17T06:02:55;100752.34;;;2.18;88.08
49102;BME280;34913;47.520;19.186;2023-02-17T06:05:20;100744.41;;;2.20;87.80
49102;BME280;34913;47.520;19.186;2023-02-17T06:07:46;100750.19;;;2.30;87.57
49102;BME280;34913;47.520;19.186;2023-02-17T06:10:11;100745.63;;;2.35;86.75
49102;BME280;34913;47.520;19.186;2023-02-17T06:12:38;100749.28;;;2.31;86.82
49102;BME280;34913;47.520;19.186;2023-02-17T06:15:04;100742.22;;;2.33;86.53
49102;BME280;34913;47.520;19.186;2023-02-17T06:17:29;100735.22;;;2.33;86.30
49102;BME280;34913;47.520;19.186;2023-02-17T06:19:55;100731.63;;;2.36;86.23
49102;BME280;34913;47.520;19.186;2023-02-17T06:22:20;100742.06;;;2.37;86.28
49102;BME280;34913;47.520;19.186;2023-02-17T06:24:45;100738.88;;;2.29;86.83
49102;BME280;34913;47.520;19.186;2023-02-17T06:27:11;100750.47;;;2.22;87.61
49102;BME280;34913;47.520;19.186;2023-02-17T06:29:36;100745.53;;;2.13;88.50
49102;BME280;34913;47.520;19.186;2023-02-17T06:32:02;100754.22;;;2.15;89.17
49102;BME280;34913;47.520;19.186;2023-02-17T06:34:27;100756.44;;;2.26;89.66
49102;BME280;34913;47.520;19.186;2023-02-17T06:36:53;100764.72;;;2.38;89.27
49102;BME280;34913;47.520;19.186;2023-02-17T06:39:19;100762.03;;;2.40;88.82
49102;BME280;34913;47.520;19.186;2023-02-17T06:41:45;100761.25;;;2.38;88.92
49102;BME280;34913;47.520;19.186;2023-02-17T06:44:10;100765.34;;;2.45;89.65
49102;BME280;34913;47.520;19.186;2023-02-17T06:46:36;100764.16;;;2.54;89.54
49102;BME280;34913;47.520;19.186;2023-02-17T06:49:01;100760.44;;;2.59;89.13
49102;BME280;34913;47.520;19.186;2023-02-17T06:51:27;100755.03;;;2.64;88.62
49102;BME280;34913;47.520;19.186;2023-02-17T06:53:54;100760.72;;;2.75;88.89
49102;BME280;34913;47.520;19.186;2023-02-17T06:56:20;100760.31;;;2.86;88.22
49102;BME280;34913;47.520;19.186;2023-02-17T06:58:45;100762.50;;;2.96;88.02
49102;BME280;34913;47.520;19.186;2023-02-17T07:01:27;100765.00;;;2.99;87.34
49102;BME280;34913;47.520;19.186;2023-02-17T07:03:53;100761.72;;;2.94;87.48
49102;BME280;34913;47.520;19.186;2023-02-17T07:06:20;100752.44;;;3.07;87.86
49102;BME280;34913;47.520;19.186;2023-02-17T07:08:47;100763.44;;;3.17;87.54
49102;BME280;34913;47.520;19.186;2023-02-17T07:11:13;100766.09;;;3.16;87.44
49102;BME280;34913;47.520;19.186;2023-02-17T07:13:39;100766.84;;;3.19;87.29
49102;BME280;34913;47.520;19.186;2023-02-17T07:16:08;100758.19;;;3.17;87.38
49102;BME280;34913;47.520;19.186;2023-02-17T07:18:34;100767.34;;;3.29;87.23
49102;BME280;34913;47.520;19.186;2023-02-17T07:21:03;100766.31;;;3.33;86.65
49102;BME280;34913;47.520;19.186;2023-02-17T07:23:29;100763.63;;;3.34;85.85
49102;BME280;34913;47.520;19.186;2023-02-17T07:25:54;100764.22;;;3.41;86.37
49102;BME280;34913;47.520;19.186;2023-02-17T07:28:20;100759.75;;;3.43;86.54
49102;BME280;34913;47.520;19.186;2023-02-17T07:30:45;100760.78;;;3.39;86.20
49102;BME280;34913;47.520;19.186;2023-02-17T07:33:11;100756.78;;;3.30;86.44
49102;BME280;34913;47.520;19.186;2023-02-17T07:35:43;100753.38;;;3.28;86.40
49102;BME280;34913;47.520;19.186;2023-02-17T07:38:10;100754.28;;;3.27;86.64
49102;BME280;34913;47.520;19.186;2023-02-17T07:40:36;100745.44;;;3.30;86.18
49102;BME280;34913;47.520;19.186;2023-02-17T07:43:01;100750.38;;;3.38;86.18
49102;BME280;34913;47.520;19.186;2023-02-17T07:45:27;100752.03;;;3.40;86.27
49102;BME280;34913;47.520;19.186;2023-02-17T07:47:53;100752.56;;;3.48;85.84
49102;BME280;34913;47.520;19.186;2023-02-17T07:50:18;100750.47;;;3.56;85.72
49102;BME280;34913;47.520;19.186;2023-02-17T07:52:44;100736.09;;;3.65;85.52
49102;BME280;34913;47.520;19.186;2023-02-17T07:55:09;100737.06;;;3.62;85.07
49102;BME280;34913;47.520;19.186;2023-02-17T07:57:35;100746.22;;;3.74;85.50
49102;BME280;34913;47.520;19.186;2023-02-17T08:00:00;100730.13;;;3.82;85.76
49102;BME280;34913;47.520;19.186;2023-02-17T08:02:26;100733.28;;;3.90;85.67
49102;BME280;34913;47.520;19.186;2023-02-17T08:04:51;100732.88;;;3.99;85.69
49102;BME280;34913;47.520;19.186;2023-02-17T08:07:17;100729.91;;;4.07;85.52
49102;BME280;34913;47.520;19.186;2023-02-17T08:09:43;100727.44;;;4.04;85.26
49102;BME280;34913;47.520;19.186;2023-02-17T08:12:26;100729.78;;;4.10;84.73
49102;BME280;34913;47.520;19.186;2023-02-17T08:15:11;100734.34;;;4.25;84.52
49102;BME280;34913;47.520;19.186;2023-02-17T08:17:36;100745.31;;;4.35;83.98
49102;BME280;34913;47.520;19.186;2023-02-17T08:20:03;100748.47;;;4.43;82.89
49102;BME280;34913;47.520;19.186;2023-02-17T08:22:28;100749.75;;;4.53;82.86
49102;BME280;34913;47.520;19.186;2023-02-17T08:24:54;100754.75;;;4.58;83.17
49102;BME280;34913;47.520;19.186;2023-02-17T08:27:19;100755.50;;;4.61;83.31
49102;BME280;34913;47.520;19.186;2023-02-17T08:29:45;100754.19;;;4.89;82.33
49102;BME280;34913;47.520;19.186;2023-02-17T08:32:12;100757.31;;;5.16;81.24
49102;BME280;34913;47.520;19.186;2023-02-17T08:34:38;100755.19;;;5.41;78.98
49102;BME280;34913;47.520;19.186;2023-02-17T08:37:05;100759.41;;;5.63;78.04
49102;BME280;34913;47.520;19.186;2023-02-17T08:39:31;100758.47;;;5.81;77.56
49102;BME280;34913;47.520;19.186;2023-02-17T08:41:57;100754.06;;;5.99;76.83
49102;BME280;34913;47.520;19.186;2023-02-17T08:44:26;100756.22;;;6.25;74.88
49102;BME280;34913;47.520;19.186;2023-02-17T08:46:51;100758.50;;;6.49;72.91
49102;BME280;34913;47.520;19.186;2023-02-17T08:49:19;100761.13;;;6.49;72.87
49102;BME280;34913;47.520;19.186;2023-02-17T08:51:46;100754.50;;;6.57;73.27
49102;BME280;34913;47.520;19.186;2023-02-17T08:54:12;100756.72;;;6.65;72.03
49102;BME280;34913;47.520;19.186;2023-02-17T08:56:39;100752.22;;;6.98;71.58
49102;BME280;34913;47.520;19.186;2023-02-17T08:59:05;100754.44;;;7.22;71.18
49102;BME280;34913;47.520;19.186;2023-02-17T09:01:31;100751.50;;;7.42;70.07
49102;BME280;34913;47.520;19.186;2023-02-17T09:03:58;100748.66;;;7.61;68.33
49102;BME280;34913;47.520;19.186;2023-02-17T09:06:35;100748.59;;;7.77;68.21
49102;BME280;34913;47.520;19.186;2023-02-17T09:09:02;100752.97;;;7.92;68.26
49102;BME280;34913;47.520;19.186;2023-02-17T09:11:27;100751.75;;;7.98;66.88
49102;BME280;34913;47.520;19.186;2023-02-17T09:13:53;100743.75;;;8.13;65.95
49102;BME280;34913;47.520;19.186;2023-02-17T09:16:18;100751.69;;;8.28;66.57
49102;BME280;34913;47.520;19.186;2023-02-17T09:18:45;100745.88;;;8.51;64.95
49102;BME280;34913;47.520;19.186;2023-02-17T09:21:11;100747.47;;;8.68;64.22
49102;BME280;34913;47.520;19.186;2023-02-17T09:23:39;100749.25;;;8.82;63.12
49102;BME280;34913;47.520;19.186;2023-02-17T09:26:07;100741.75;;;9.03;62.70
49102;BME280;34913;47.520;19.186;2023-02-17T09:28:34;100741.59;;;9.18;61.37
49102;BME280;34913;47.520;19.186;2023-02-17T09:31:11;100740.16;;;9.27;61.34
49102;BME280;34913;47.520;19.186;2023-02-17T09:33:38;100732.56;;;9.35;61.96
49102;BME280;34913;47.520;19.186;2023-02-17T09:36:09;100728.59;;;9.68;59.31
49102;BME280;34913;47.520;19.186;2023-02-17T09:38:37;100735.22;;;10.00;57.81
49102;BME280;34913;47.520;19.186;2023-02-17T09:41:33;100732.50;;;10.53;55.47
49102;BME280;34913;47.520;19.186;2023-02-17T09:44:04;100732.19;;;10.81;53.13
49102;BME280;34913;47.520;19.186;2023-02-17T09:46:41;100724.63;;;11.01;52.81
49102;BME280;34913;47.520;19.186;2023-02-17T09:49:13;100727.59;;;10.96;52.89
49102;BME280;34913;47.520;19.186;2023-02-17T09:51:48;100722.41;;;10.95;52.20
49102;BME280;34913;47.520;19.186;2023-02-17T09:54:36;100731.09;;;10.97;53.04
49102;BME280;34913;47.520;19.186;2023-02-17T09:57:07;100724.47;;;11.15;51.42
49102;BME280;34913;47.520;19.186;2023-02-17T09:59:44;100726.72;;;11.32;48.50
49102;BME280;34913;47.520;19.186;2023-02-17T10:02:18;100720.69;;;11.30;51.08
49102;BME280;34913;47.520;19.186;2023-02-17T10:04:47;100723.69;;;11.37;49.28
49102;BME280;34913;47.520;19.186;2023-02-17T10:07:30;100710.19;;;11.40;49.59
49102;BME280;34913;47.520;19.186;2023-02-17T10:10:00;100709.00;;;11.44;49.59
49102;BME280;34913;47.520;19.186;2023-02-17T10:12:29;100714.38;;;11.55;48.76
49102;BME280;34913;47.520;19.186;2023-02-17T10:15:08;100713.53;;;11.55;49.40
49102;BME280;34913;47.520;19.186;2023-02-17T10:17:54;100699.84;;;11.48;50.27
49102;BME280;34913;47.520;19.186;2023-02-17T10:22:50;100694.84;;;11.43;52.42
49102;BME280;34913;47.520;19.186;2023-02-17T10:25:17;100687.00;;;11.42;52.71
49102;BME280;34913;47.520;19.186;2023-02-17T10:27:52;100683.34;;;11.32;53.19
49102;BME280;34913;47.520;19.186;2023-02-17T10:33:11;100672.09;;;11.28;53.72
49102;BME280;34913;47.520;19.186;2023-02-17T10:35:37;100662.09;;;11.32;53.13
49102;BME280;34913;47.520;19.186;2023-02-17T10:40:47;100660.00;;;11.24;52.52
49102;BME280;34913;47.520;19.186;2023-02-17T10:43:14;100653.84;;;11.24;52.58
49102;BME280;34913;47.520;19.186;2023-02-17T10:45:44;100658.81;;;11.04;54.00
49102;BME280;34913;47.520;19.186;2023-02-17T10:51:12;100649.88;;;11.05;53.81
49102;BME280;34913;47.520;19.186;2023-02-17T10:53:38;100651.75;;;11.16;53.43
49102;BME280;34913;47.520;19.186;2023-02-17T10:56:11;100648.75;;;11.21;53.49
49102;BME280;34913;47.520;19.186;2023-02-17T11:01:04;100642.19;;;11.13;54.20
49102;BME280;34913;47.520;19.186;2023-02-17T11:03:30;100635.41;;;11.09;54.56
49102;BME280;34913;47.520;19.186;2023-02-17T11:05:57;100641.88;;;10.94;54.58
49102;BME280;34913;47.520;19.186;2023-02-17T11:08:30;100644.78;;;10.91;53.79
49102;BME280;34913;47.520;19.186;2023-02-17T11:11:00;100648.94;;;10.82;53.87
49102;BME280;34913;47.520;19.186;2023-02-17T11:13:31;100627.00;;;10.68;54.74
49102;BME280;34913;47.520;19.186;2023-02-17T11:15:58;100629.56;;;10.69;54.74
49102;BME280;34913;47.520;19.186;2023-02-17T11:18:28;100624.72;;;10.74;54.69
49102;BME280;34913;47.520;19.186;2023-02-17T11:21:13;100622.72;;;10.78;54.44
49102;BME280;34913;47.520;19.186;2023-02-17T11:23:49;100618.13;;;10.80;54.94
49102;BME280;34913;47.520;19.186;2023-02-17T11:26:17;100623.84;;;10.86;54.67
49102;BME280;34913;47.520;19.186;2023-02-17T11:28:43;100617.56;;;10.87;54.31
49102;BME280;34913;47.520;19.186;2023-02-17T11:31:20;100613.34;;;10.85;54.56
49102;BME280;34913;47.520;19.186;2023-02-17T11:33:45;100614.91;;;10.87;54.73
49102;BME280;34913;47.520;19.186;2023-02-17T11:36:19;100612.91;;;10.91;54.28
49102;BME280;34913;47.520;19.186;2023-02-17T11:38:45;100613.63;;;10.93;53.96
49102;BME280;34913;47.520;19.186;2023-02-17T11:41:12;100606.81;;;10.89;53.55
49102;BME280;34913;47.520;19.186;2023-02-17T11:43:38;100594.19;;;10.93;52.64
49102;BME280;34913;47.520;19.186;2023-02-17T11:51:02;100593.63;;;11.00;53.45
49102;BME280;34913;47.520;19.186;2023-02-17T11:53:48;100588.63;;;10.96;53.86
49102;BME280;34913;47.520;19.186;2023-02-17T11:56:18;100583.69;;;10.91;54.27
49102;BME280;34913;47.520;19.186;2023-02-17T12:01:17;100581.06;;;11.49;59.11
49102;BME280;34913;47.520;19.186;2023-02-17T12:06:13;100570.25;;;11.28;53.27
49102;BME280;34913;47.520;19.186;2023-02-17T12:14:01;100571.13;;;10.93;53.53
49102;BME280;34913;47.520;19.186;2023-02-17T12:36:39;100539.41;;;10.44;58.59
49102;BME280;34913;47.520;19.186;2023-02-17T12:39:14;100533.97;;;10.45;59.25
49102;BME280;34913;47.520;19.186;2023-02-17T12:41:49;100533.75;;;10.48;59.50
49102;BME280;34913;47.520;19.186;2023-02-17T12:46:41;100537.03;;;10.52;59.70
49102;BME280;34913;47.520;19.186;2023-02-17T12:49:16;100537.41;;;10.58;60.08
49102;BME280;34913;47.520;19.186;2023-02-17T12:52:26;100551.88;;;10.54;61.08
49102;BME280;34913;47.520;19.186;2023-02-17T12:54:32;100550.69;;;10.58;60.89
49102;BME280;34913;47.520;19.186;2023-02-17T12:57:01;100547.09;;;10.59;61.50
49102;BME280;34913;47.520;19.186;2023-02-17T12:59:33;100541.44;;;10.64;61.49
49102;BME280;34913;47.520;19.186;2023-02-17T13:02:00;100540.38;;;10.67;61.33
49102;BME280;34913;47.520;19.186;2023-02-17T13:04:25;100536.06;;;10.77;61.44
49102;BME280;34913;47.520;19.186;2023-02-17T13:06:54;100536.19;;;10.75;61.52
49102;BME280;34913;47.520;19.186;2023-02-17T13:11:50;100538.94;;;10.74;61.83
49102;BME280;34913;47.520;19.186;2023-02-17T13:14:26;100532.97;;;10.59;62.83
49102;BME280;34913;47.520;19.186;2023-02-17T13:16:52;100535.91;;;10.67;62.55
49102;BME280;34913;47.520;19.186;2023-02-17T13:19:28;100541.59;;;10.74;61.81
49102;BME280;34913;47.520;19.186;2023-02-17T13:21:54;100533.72;;;10.72;61.93
49102;BME280;34913;47.520;19.186;2023-02-17T13:24:33;100534.03;;;10.56;63.35
49102;BME280;34913;47.520;19.186;2023-02-17T13:27:18;100533.19;;;10.56;63.08
49102;BME280;34913;47.520;19.186;2023-02-17T13:29:44;100534.03;;;10.56;63.21
49102;BME280;34913;47.520;19.186;2023-02-17T13:32:10;100530.53;;;10.56;63.85
49102;BME280;34913;47.520;19.186;2023-02-17T13:37:16;100530.41;;;10.57;65.24
49102;BME280;34913;47.520;19.186;2023-02-17T13:39:42;100531.63;;;10.53;66.44
49102;BME280;34913;47.520;19.186;2023-02-17T13:47:57;100522.09;;;10.51;66.79
49102;BME280;34913;47.520;19.186;2023-02-17T13:50:32;100523.13;;;10.48;68.40
49102;BME280;34913;47.520;19.186;2023-02-17T13:52:57;100517.13;;;10.57;66.49
49102;BME280;34913;47.520;19.186;2023-02-17T13:55:23;100513.50;;;10.58;66.56
49102;BME280;34913;47.520;19.186;2023-02-17T13:57:52;100508.22;;;10.58;66.55
49102;BME280;34913;47.520;19.186;2023-02-17T14:00:22;100502.69;;;10.61;66.64
49102;BME280;34913;47.520;19.186;2023-02-17T14:03:04;100504.53;;;10.72;65.16
49102;BME280;34913;47.520;19.186;2023-02-17T14:07:59;100492.94;;;10.73;65.69
49102;BME280;34913;47.520;19.186;2023-02-17T14:10:27;100484.25;;;10.71;66.06
49102;BME280;34913;47.520;19.186;2023-02-17T14:12:53;100487.88;;;10.70;65.78
49102;BME280;34913;47.520;19.186;2023-02-17T14:15:20;100483.81;;;10.77;64.98
49102;BME280;34913;47.520;19.186;2023-02-17T14:17:46;100485.63;;;10.77;65.86
49102;BME280;34913;47.520;19.186;2023-02-17T14:20:29;100486.78;;;10.73;66.07
49102;BME280;34913;47.520;19.186;2023-02-17T14:22:59;100479.66;;;10.73;65.83
49102;BME280;34913;47.520;19.186;2023-02-17T14:25:26;100478.22;;;10.69;66.21